Time;durP1;ratioP1;P1;durP2;ratioP2;P2;SDS_P1;SDS_P2;PMS_P1;PMS_P2;Temp;Humidity;BMP_temperature;BMP_pressure;BME280_temperature;BME280_humidity;BME280_pressure;Samples;Min_cycle;Max_cycle;Signal;HPM_P1;HPM_P2
2021/10/18 00:06:55;;;;;;;39.25;20.50;;;;;;;6.23;96.82;101194.19;20743666;28;20108;-67
2021/10/18 00:16:57;;;;;;;38.60;20.77;;;;;;;6.17;96.84;101195.84;20744495;28;20155;-67
2021/10/18 00:26:58;;;;;;;44.25;20.70;;;;;;;6.04;96.64;101196.53;20742568;28;20426;-67
2021/10/18 00:37:00;;;;;;;38.88;20.23;;;;;;;6.05;96.41;101192.22;20741370;28;20450;-68
2021/10/18 00:47:02;;;;;;;30.98;17.73;;;;;;;5.95;96.14;101180.81;20741477;28;20167;-68
2021/10/18 00:57:03;;;;;;;31.25;17.67;;;;;;;5.84;94.92;101192.69;20740665;28;20116;-68
2021/10/18 01:07:05;;;;;;;29.80;17.00;;;;;;;5.54;95.26;101193.06;20737846;28;20115;-68
2021/10/18 01:17:07;;;;;;;28.05;16.85;;;;;;;5.51;95.89;101199.09;20739283;28;20053;-67
2021/10/18 01:27:08;;;;;;;25.10;15.55;;;;;;;5.38;95.30;101197.13;20739502;28;20046;-68
2021/10/18 01:37:10;;;;;;;29.20;16.27;;;;;;;5.31;94.70;101196.09;20737824;28;20050;-67
2021/10/18 01:47:12;;;;;;;38.13;14.50;;;;;;;5.19;94.96;101189.84;20737080;28;20554;-67
2021/10/18 01:57:13;;;;;;;61.15;14.45;;;;;;;5.09;95.65;101193.97;20736836;28;20042;-67
2021/10/18 02:07:15;;;;;;;29.35;12.30;;;;;;;4.96;95.77;101191.97;20734406;28;20053;-68
2021/10/18 02:17:17;;;;;;;23.63;12.23;;;;;;;4.92;95.57;101195.34;20735035;28;20050;-68
2021/10/18 02:27:18;;;;;;;22.60;11.05;;;;;;;4.75;96.03;101201.09;20735380;28;20512;-68
2021/10/18 02:37:20;;;;;;;27.13;11.65;;;;;;;4.74;95.91;101186.34;20733945;28;20058;-67
2021/10/18 02:47:21;;;;;;;21.70;12.30;;;;;;;4.52;95.82;101190.22;20734350;28;20046;-68
2021/10/18 02:57:23;;;;;;;28.80;10.82;;;;;;;4.34;94.77;101207.97;20734241;28;20441;-67
2021/10/18 03:07:24;;;;;;;20.27;10.45;;;;;;;4.03;95.55;101216.75;20732818;28;20045;-68
2021/10/18 03:17:27;;;;;;;19.73;10.75;;;;;;;3.92;94.92;101226.84;20733065;28;20116;-68
2021/10/18 03:27:28;;;;;;;19.52;11.27;;;;;;;3.79;94.89;101225.69;20739252;28;20046;-67
2021/10/18 03:37:30;;;;;;;19.65;12.18;;;;;;;3.81;95.17;101234.34;20746166;28;20080;-68
2021/10/18 03:47:31;;;;;;;21.88;13.30;;;;;;;3.86;95.36;101243.13;20745912;28;20399;-67
2021/10/18 03:57:33;;;;;;;25.67;15.02;;;;;;;4.03;94.87;101253.03;20745644;28;20046;-68
2021/10/18 04:07:37;;;;;;;24.88;14.30;;;;;;;4.03;94.16;101271.19;20744781;28;20046;-67
2021/10/18 04:17:39;;;;;;;29.07;15.33;;;;;;;4.30;94.67;101282.19;20741855;28;20622;-67
2021/10/18 04:27:40;;;;;;;40.60;17.90;;;;;;;4.41;93.98;101285.06;20743609;28;20058;-67
2021/10/18 04:37:42;;;;;;;42.20;17.38;;;;;;;4.43;94.74;101293.75;20741820;28;20038;-67
2021/10/18 04:47:53;;;;;;;57.83;20.35;;;;;;;4.58;95.08;101303.59;20741320;28;20068;-68
2021/10/18 04:57:55;;;;;;;50.78;18.10;;;;;;;4.70;95.12;101322.03;20740902;28;20108;-67
2021/10/18 05:08:03;;;;;;;78.10;22.40;;;;;;;4.79;94.94;101327.44;20739280;28;20426;-67
2021/10/18 05:18:05;;;;;;;72.60;21.15;;;;;;;5.04;95.63;101309.81;20739275;28;20080;-67
2021/10/18 05:28:08;;;;;;;64.47;20.42;;;;;;;5.17;95.69;101322.19;20738484;28;20079;-67
2021/10/18 05:38:10;;;;;;;61.88;21.27;;;;;;;5.22;96.64;101332.66;20737596;28;20505;-67
2021/10/18 05:48:12;;;;;;;65.32;21.40;;;;;;;5.37;96.41;101323.50;20736861;28;20414;-68
2021/10/18 05:58:13;;;;;;;63.42;20.15;;;;;;;5.53;96.10;101336.78;20737457;28;20042;-67
2021/10/18 06:08:15;;;;;;;60.08;19.30;;;;;;;5.64;95.99;101350.84;20742786;28;20526;-67
2021/10/18 06:18:17;;;;;;;62.83;19.80;;;;;;;5.82;96.47;101364.19;20741095;28;20104;-67
2021/10/18 06:28:21;;;;;;;65.20;21.45;;;;;;;5.90;95.98;101362.63;20735648;28;20049;-66
2021/10/18 06:38:24;;;;;;;60.53;19.40;;;;;;;6.03;95.72;101362.88;20733372;28;20068;-67
2021/10/18 06:48:32;;;;;;;63.67;18.08;;;;;;;6.12;95.66;101371.72;20734749;28;20193;-67
2021/10/18 06:58:33;;;;;;;63.10;17.48;;;;;;;6.04;95.70;101393.25;20736907;28;20045;-67
2021/10/18 07:08:35;;;;;;;46.53;14.40;;;;;;;6.30;95.43;101398.91;20741274;28;20414;-67
2021/10/18 07:18:36;;;;;;;58.83;17.45;;;;;;;6.45;96.36;101395.69;20741917;28;20120;-67
2021/10/18 07:28:38;;;;;;;49.95;14.93;;;;;;;6.68;96.54;101396.94;20741319;28;20092;-67
2021/10/18 07:38:39;;;;;;;49.92;16.02;;;;;;;6.83;95.50;101407.59;20740435;28;20042;-67
2021/10/18 07:48:41;;;;;;;43.97;15.73;;;;;;;6.81;94.44;101419.72;20740473;28;20053;-67
2021/10/18 07:58:42;;;;;;;42.13;15.05;;;;;;;6.86;93.22;101438.91;20740545;28;20049;-68
2021/10/18 08:08:47;;;;;;;44.50;15.98;;;;;;;6.81;93.75;101432.75;20735347;28;20052;-68
2021/10/18 08:18:50;;;;;;;56.50;18.60;;;;;;;7.24;93.36;101437.75;20737992;28;20465;-67
2021/10/18 08:28:52;;;;;;;46.15;16.88;;;;;;;7.43;91.82;101429.34;20733626;28;20124;-71
2021/10/18 08:38:57;;;;;;;35.28;16.20;;;;;;;7.77;91.34;101429.75;20735637;28;20050;-69
2021/10/18 08:48:59;;;;;;;24.70;13.93;;;;;;;7.85;87.48;101442.00;20734333;28;20415;-70
2021/10/18 08:59:01;;;;;;;22.48;13.15;;;;;;;8.45;86.69;101422.72;20735846;28;20107;-70
2021/10/18 09:09:04;;;;;;;19.83;10.43;;;;;;;8.81;83.84;101433.44;20730549;28;20093;-69
2021/10/18 09:19:10;;;;;;;20.90;12.25;;;;;;;8.85;84.70;101433.47;20716482;28;20077;-70
2021/10/18 09:29:16;;;;;;;25.17;14.05;;;;;;;8.37;84.10;101440.00;20730307;28;20046;-70
2021/10/18 09:39:29;;;;;;;24.83;14.18;;;;;;;8.26;85.04;101451.19;20723545;28;20302;-71
2021/10/18 10:51:55;;;;;;;37.22;19.92;;;;;;;9.08;84.92;101440.63;20746284;28;20054;-68
2021/10/18 11:02:01;;;;;;;39.53;20.35;;;;;;;9.35;84.41;101419.91;20747927;28;20148;-69
2021/10/18 11:12:10;;;;;;;39.70;21.00;;;;;;;9.42;84.86;101415.56;20743772;28;20466;-70
2021/10/18 11:22:12;;;;;;;37.72;21.23;;;;;;;10.00;82.88;101402.72;20742757;28;20056;-70
2021/10/18 11:32:14;;;;;;;35.92;18.77;;;;;;;10.03;82.48;101380.06;20740868;28;20057;-71
2021/10/18 11:42:16;;;;;;;31.60;18.45;;;;;;;10.22;81.62;101365.28;20740972;28;20132;-70
2021/10/18 11:52:17;;;;;;;36.00;20.27;;;;;;;10.47;80.51;101355.72;20739402;28;20053;-70
2021/10/18 12:02:23;;;;;;;39.33;19.85;;;;;;;10.66;79.74;101353.09;20738763;28;20503;-70
2021/10/18 12:12:25;;;;;;;31.85;18.60;;;;;;;11.04;78.69;101337.31;20737778;28;20049;-70
2021/10/18 12:22:27;;;;;;;35.00;21.70;;;;;;;10.96;80.55;101333.81;20736142;28;20104;-69
2021/10/18 12:32:31;;;;;;;32.80;20.45;;;;;;;10.90;80.17;101326.84;20735242;28;20050;-70
2021/10/18 12:42:33;;;;;;;29.97;18.30;;;;;;;10.82;80.65;101297.16;20733071;28;20046;-70
2021/10/18 12:52:39;;;;;;;31.33;18.30;;;;;;;10.90;80.45;101307.66;20733260;28;20076;-70
2021/10/18 13:02:46;;;;;;;32.10;17.48;;;;;;;11.00;80.47;101305.00;20734086;28;20478;-70
2021/10/18 13:12:50;;;;;;;26.58;16.48;;;;;;;11.22;79.67;101311.03;20732958;28;20137;-70
2021/10/18 13:22:54;;;;;;;26.45;15.75;;;;;;;11.31;79.28;101307.53;20732329;28;20100;-70
2021/10/18 13:32:57;;;;;;;27.33;15.90;;;;;;;11.23;79.19;101298.81;20731756;28;20128;-70
2021/10/18 13:42:58;;;;;;;27.23;15.63;;;;;;;11.15;79.08;101272.59;20729144;28;20486;-70
2021/10/18 13:52:59;;;;;;;24.00;15.25;;;;;;;11.24;80.09;101283.06;20730517;28;20512;-70
2021/10/18 14:03:01;;;;;;;26.10;16.80;;;;;;;11.21;79.41;101290.97;20730732;28;20053;-70
2021/10/18 14:13:03;;;;;;;26.05;16.33;;;;;;;11.25;80.27;101291.78;20729386;28;20080;-70
2021/10/18 14:23:05;;;;;;;22.10;15.00;;;;;;;11.13;80.50;101282.25;20729583;28;20406;-70
2021/10/18 14:33:07;;;;;;;25.58;16.17;;;;;;;11.17;80.13;101280.50;20728604;28;20147;-69
2021/10/18 14:43:08;;;;;;;25.65;16.67;;;;;;;11.11;80.34;101264.75;20728337;28;20050;-69
2021/10/18 14:53:10;;;;;;;25.90;15.88;;;;;;;11.08;81.18;101236.84;20727759;28;20450;-69
2021/10/18 15:03:31;;;;;;;28.02;17.10;;;;;;;11.09;81.49;101240.31;20726601;28;20056;-70
2021/10/18 15:13:33;;;;;;;22.92;14.32;;;;;;;10.84;83.11;101250.91;20731031;28;20045;-70
2021/10/18 15:23:36;;;;;;;21.88;15.05;;;;;;;10.71;83.88;101244.81;20734170;28;20097;-69
2021/10/18 15:33:40;;;;;;;23.92;16.50;;;;;;;10.57;83.67;101232.63;20740199;28;20073;-69
2021/10/18 15:43:41;;;;;;;28.55;16.63;;;;;;;10.41;84.64;101213.47;20737299;28;20448;-69
2021/10/18 15:53:43;;;;;;;28.77;17.02;;;;;;;10.21;85.32;101192.53;20739959;28;20120;-70
2021/10/18 16:03:44;;;;;;;23.52;16.02;;;;;;;9.93;86.95;101194.31;20743415;28;20042;-70
2021/10/18 16:13:46;;;;;;;26.40;18.10;;;;;;;9.77;87.74;101211.72;20739807;28;20049;-70
2021/10/18 16:23:48;;;;;;;32.65;19.75;;;;;;;9.52;88.30;101198.63;20737705;28;20503;-69
2021/10/18 16:33:49;;;;;;;26.48;18.58;;;;;;;9.37;89.55;101184.69;20733758;28;20049;-70
2021/10/18 16:43:52;;;;;;;32.05;19.17;;;;;;;9.22;89.65;101216.88;20736868;28;20050;-69
2021/10/18 16:53:53;;;;;;;34.17;19.88;;;;;;;9.09;89.96;101213.34;20736523;28;20100;-69
2021/10/18 17:03:55;;;;;;;30.92;20.33;;;;;;;8.87;90.98;101241.13;20732582;28;20053;-69
2021/10/18 17:14:00;;;;;;;32.67;20.67;;;;;;;8.77;91.34;101272.38;20734305;28;20050;-69
2021/10/18 17:24:02;;;;;;;35.60;22.73;;;;;;;8.56;92.24;101275.75;20732929;28;20097;-69
2021/10/18 17:34:05;;;;;;;35.35;21.33;;;;;;;8.45;92.34;101276.56;20722835;28;20306;-69
2021/10/18 17:44:07;;;;;;;44.85;26.63;;;;;;;8.38;92.39;101292.13;20729801;28;20748;-69
2021/10/18 17:54:12;;;;;;;;;;;;;;;8.31;92.85;101292.94;20730039;28;20088;-69
2021/10/18 18:04:15;;;;;;;39.60;27.85;;;;;;;8.17;92.92;101298.91;20727259;28;20322;-69
2021/10/18 18:14:17;;;;;;;53.17;33.95;;;;;;;8.10;92.45;101293.66;20729030;28;20124;-69
2021/10/18 18:24:40;;;;;;;51.88;33.33;;;;;;;8.04;93.15;101291.84;20728963;28;20049;-70
2021/10/18 18:34:42;;;;;;;47.50;28.55;;;;;;;8.01;92.89;101314.44;20727542;28;20046;-69
2021/10/18 18:44:44;;;;;;;46.63;28.05;;;;;;;7.84;92.98;101291.66;20728353;28;20069;-69
2021/10/18 18:54:46;;;;;;;41.80;26.73;;;;;;;7.79;93.71;101271.63;20728774;28;20112;-69
2021/10/18 19:04:48;;;;;;;45.97;27.05;;;;;;;7.76;93.82;101282.00;20745692;28;20050;-69
2021/10/18 19:14:50;;;;;;;53.17;30.95;;;;;;;7.64;93.57;101298.41;20740981;28;20045;-69
2021/10/18 19:24:51;;;;;;;54.55;30.63;;;;;;;7.53;93.98;101276.56;20743190;28;20058;-69
2021/10/18 19:34:53;;;;;;;65.45;35.15;;;;;;;7.55;93.97;101277.44;20738934;28;20053;-69
2021/10/18 19:44:55;;;;;;;70.75;35.85;;;;;;;7.55;93.39;101265.28;20737940;28;20058;-69
2021/10/18 19:54:56;;;;;;;65.45;35.08;;;;;;;7.43;93.99;101273.00;20737866;28;20405;-69
2021/10/18 20:04:58;;;;;;;82.13;36.75;;;;;;;7.28;94.31;101299.75;20734549;28;20472;-69
2021/10/18 20:15:02;;;;;;;64.60;33.72;;;;;;;7.03;95.03;101311.56;20735329;28;20054;-69
2021/10/18 20:25:04;;;;;;;58.22;31.45;;;;;;;6.81;95.52;101335.56;20736255;28;20057;-69
2021/10/18 20:35:07;;;;;;;61.78;33.03;;;;;;;6.80;95.75;101347.69;20734149;28;20100;-69
2021/10/18 20:45:09;;;;;;;60.58;32.60;;;;;;;6.94;94.96;101347.88;20732942;28;20569;-68
2021/10/18 20:55:11;;;;;;;80.72;35.13;;;;;;;6.85;95.38;101356.47;20734987;28;20487;-68
2021/10/18 21:05:12;;;;;;;65.07;33.97;;;;;;;6.88;95.57;101366.03;20731406;28;20058;-68
2021/10/18 21:15:14;;;;;;;72.82;35.78;;;;;;;6.90;94.97;101360.00;20732602;28;20057;-69
2021/10/18 21:25:16;;;;;;;94.28;41.78;;;;;;;6.92;95.10;101368.69;20733441;28;20046;-68
2021/10/18 21:35:17;;;;;;;64.03;30.02;;;;;;;6.87;94.55;101382.50;20729975;28;20046;-70
2021/10/18 21:45:19;;;;;;;50.55;28.90;;;;;;;6.81;94.69;101370.28;20729992;28;20117;-69
2021/10/18 21:55:21;;;;;;;52.17;28.42;;;;;;;7.06;95.55;101349.81;20729524;28;20466;-68
2021/10/18 22:05:22;;;;;;;62.20;29.30;;;;;;;7.06;95.67;101352.41;20723716;28;20143;-69
2021/10/18 22:15:25;;;;;;;55.20;30.42;;;;;;;7.19;96.12;101338.69;20735867;28;20046;-69
2021/10/18 22:25:27;;;;;;;53.60;28.58;;;;;;;7.31;96.52;101341.44;20734764;28;20097;-68
2021/10/18 22:35:29;;;;;;;55.45;27.73;;;;;;;7.38;96.66;101293.78;20734533;28;20049;-68
2021/10/18 22:45:30;;;;;;;58.83;26.70;;;;;;;7.45;96.59;101312.97;20734610;28;20502;-68
2021/10/18 22:55:32;;;;;;;66.55;26.35;;;;;;;7.32;97.37;101334.50;20733964;28;20050;-69
2021/10/18 23:05:33;;;;;;;55.15;24.65;;;;;;;7.33;97.70;101287.66;20732703;28;20061;-69
2021/10/18 23:15:36;;;;;;;52.03;23.42;;;;;;;7.38;97.20;101285.09;20733458;28;20114;-69
2021/10/18 23:25:38;;;;;;;65.20;24.13;;;;;;;7.36;97.13;101285.06;20733233;28;20057;-69
2021/10/18 23:35:39;;;;;;;60.63;22.95;;;;;;;7.41;97.59;101296.41;20732153;28;20104;-69
2021/10/18 23:45:41;;;;;;;50.88;20.90;;;;;;;7.45;97.68;101286.91;20741099;28;20054;-68
2021/10/18 23:55:43;;;;;;;52.47;21.25;;;;;;;7.48;97.00;101286.94;20746417;28;20042;-68
